Time;durP1;ratioP1;P1;durP2;ratioP2;P2;SDS_P1;SDS_P2;PMS_P1;PMS_P2;Temp;Humidity;BMP_temperature;BMP_pressure;BME280_temperature;BME280_humidity;BME280_pressure;Samples;Min_cycle;Max_cycle;Signal;HPM_P1;HPM_P2
2024/03/25 00:02:01;;;;;;;5.60;2.97;;;8.30;99.90;;;;;;5019770;28;20836;-67
2024/03/25 00:04:26;;;;;;;8.87;3.50;;;8.40;99.90;;;;;;5011535;28;20259;-66
2024/03/25 00:06:53;;;;;;;4.73;2.77;;;8.30;99.90;;;;;;5010523;28;20632;-67
2024/03/25 00:09:18;;;;;;;5.33;3.03;;;8.20;99.90;;;;;;5011895;28;20593;-66
2024/03/25 00:11:44;;;;;;;6.37;3.10;;;8.30;99.90;;;;;;5015280;28;20434;-67
2024/03/25 00:14:09;;;;;;;7.27;4.00;;;8.30;99.90;;;;;;5010920;28;20212;-67
2024/03/25 00:16:36;;;;;;;5.23;2.80;;;8.30;99.90;;;;;;5017797;28;20703;-66
2024/03/25 00:19:02;;;;;;;5.33;3.00;;;8.30;99.90;;;;;;5008910;28;20340;-66
2024/03/25 00:21:27;;;;;;;5.10;3.10;;;8.30;99.90;;;;;;5011893;28;20473;-66
2024/03/25 00:23:56;;;;;;;5.97;3.60;;;8.30;99.90;;;;;;5010542;28;20323;-66
2024/03/25 00:26:22;;;;;;;7.27;3.30;;;8.30;99.90;;;;;;5007975;28;20262;-66
2024/03/25 00:28:48;;;;;;;8.20;3.20;;;8.30;99.90;;;;;;5017151;28;20416;-66
2024/03/25 00:31:13;;;;;;;5.80;3.37;;;8.30;99.90;;;;;;5014025;28;20998;-66
2024/03/25 00:33:39;;;;;;;7.20;3.30;;;8.20;99.90;;;;;;5007949;28;20575;-67
2024/03/25 00:36:05;;;;;;;5.50;3.30;;;8.20;99.90;;;;;;5009589;28;20319;-67
2024/03/25 00:38:30;;;;;;;6.33;3.03;;;8.20;99.90;;;;;;5018252;28;20538;-67
2024/03/25 00:40:56;;;;;;;11.07;3.20;;;8.20;99.90;;;;;;5017475;28;20496;-67
2024/03/25 00:43:21;;;;;;;9.00;3.60;;;8.20;99.90;;;;;;5017557;28;20299;-67
2024/03/25 00:45:47;;;;;;;5.07;2.90;;;8.20;99.90;;;;;;5009994;28;20211;-67
2024/03/25 00:48:12;;;;;;;4.77;3.10;;;8.20;99.90;;;;;;5012860;28;20615;-67
2024/03/25 00:50:38;;;;;;;6.03;3.00;;;8.10;99.90;;;;;;5015289;28;20182;-67
2024/03/25 00:53:04;;;;;;;5.50;3.50;;;8.10;99.90;;;;;;5011720;28;20180;-66
2024/03/25 00:55:29;;;;;;;7.73;3.37;;;8.20;99.90;;;;;;5016332;28;20262;-67
2024/03/25 00:57:55;;;;;;;7.03;3.53;;;8.10;99.90;;;;;;5014077;28;20647;-67
2024/03/25 01:00:20;;;;;;;6.77;3.73;;;8.20;99.90;;;;;;5007033;28;20216;-67
2024/03/25 01:02:46;;;;;;;6.93;2.93;;;8.30;99.90;;;;;;5012248;28;20185;-67
2024/03/25 01:05:12;;;;;;;4.83;3.20;;;8.30;99.90;;;;;;5016239;28;20254;-67
2024/03/25 01:07:37;;;;;;;6.27;3.17;;;8.30;99.90;;;;;;5014441;28;20500;-67
2024/03/25 01:10:04;;;;;;;4.60;2.97;;;8.40;99.90;;;;;;5013424;28;20299;-68
2024/03/25 01:12:29;;;;;;;5.30;3.73;;;8.20;99.90;;;;;;5017396;28;20184;-67
2024/03/25 01:14:55;;;;;;;5.53;3.20;;;8.20;99.90;;;;;;5008922;28;20462;-67
2024/03/25 01:17:20;;;;;;;5.50;3.10;;;8.30;99.90;;;;;;5011095;28;20185;-67
2024/03/25 01:19:46;;;;;;;9.83;3.10;;;8.30;99.90;;;;;;5009796;28;20215;-67
2024/03/25 01:22:12;;;;;;;7.63;2.93;;;8.20;99.90;;;;;;5013568;28;20341;-67
2024/03/25 01:24:37;;;;;;;6.90;3.40;;;8.20;99.90;;;;;;5014631;28;20219;-67
2024/03/25 01:27:03;;;;;;;8.10;3.50;;;8.30;99.90;;;;;;5019700;28;20557;-67
2024/03/25 01:29:28;;;;;;;5.47;3.50;;;8.20;99.90;;;;;;5012993;28;20563;-67
2024/03/25 01:31:54;;;;;;;7.13;3.30;;;8.10;99.90;;;;;;5012353;28;20572;-67
2024/03/25 01:34:19;;;;;;;6.80;4.00;;;8.10;99.90;;;;;;5014899;28;20662;-67
2024/03/25 01:36:45;;;;;;;5.00;3.50;;;8.20;99.90;;;;;;5014753;28;20189;-67
2024/03/25 01:39:11;;;;;;;7.20;3.37;;;8.20;99.90;;;;;;5008526;28;20188;-67
2024/03/25 01:41:36;;;;;;;6.60;3.90;;;8.20;99.90;;;;;;5011177;28;20218;-67
2024/03/25 01:44:02;;;;;;;4.90;3.03;;;8.20;99.90;;;;;;5011492;28;20303;-66
2024/03/25 01:46:28;;;;;;;8.90;2.90;;;8.20;99.90;;;;;;5011063;28;20180;-66
2024/03/25 01:48:54;;;;;;;4.40;3.30;;;8.20;99.90;;;;;;5013262;28;20242;-66
2024/03/25 01:51:22;;;;;;;5.90;2.93;;;8.20;99.90;;;;;;5014541;28;21172;-66
2024/03/25 01:53:49;;;;;;;6.27;3.23;;;8.20;99.90;;;;;;5014028;28;20863;-66
2024/03/25 01:56:16;;;;;;;4.60;3.17;;;8.20;99.90;;;;;;5011682;28;20435;-66
2024/03/25 01:58:42;;;;;;;7.27;3.17;;;8.20;99.90;;;;;;5018422;28;20426;-66
2024/03/25 02:01:10;;;;;;;8.20;3.60;;;8.30;99.90;;;;;;5017396;28;20423;-66
2024/03/25 02:03:36;;;;;;;5.37;2.83;;;8.20;99.90;;;;;;5012422;28;20177;-66
2024/03/25 02:06:08;;;;;;;5.73;3.10;;;8.20;99.90;;;;;;5014194;28;20433;-66
2024/03/25 02:08:34;;;;;;;5.33;3.23;;;8.20;99.90;;;;;;5011875;28;20240;-66
2024/03/25 02:11:01;;;;;;;8.50;3.53;;;8.20;99.90;;;;;;5014544;28;20778;-66
2024/03/25 02:13:27;;;;;;;5.57;2.93;;;8.20;99.90;;;;;;5008941;28;20420;-66
2024/03/25 02:15:54;;;;;;;4.93;3.10;;;8.20;99.90;;;;;;5017853;28;20509;-66
2024/03/25 02:18:20;;;;;;;5.30;3.03;;;8.20;99.90;;;;;;5012488;28;20177;-66
2024/03/25 02:20:47;;;;;;;4.00;2.57;;;8.10;99.90;;;;;;5014521;28;20428;-67
2024/03/25 02:23:13;;;;;;;4.30;3.33;;;8.20;99.90;;;;;;5011259;28;20944;-66
2024/03/25 02:25:42;;;;;;;5.80;3.03;;;8.10;99.90;;;;;;5014567;28;20974;-66
2024/03/25 02:28:08;;;;;;;5.47;3.07;;;8.20;99.90;;;;;;5012416;28;20550;-66
2024/03/25 02:30:33;;;;;;;5.77;3.50;;;8.20;99.90;;;;;;5015606;28;20510;-66
2024/03/25 02:32:59;;;;;;;4.90;2.70;;;8.10;99.90;;;;;;5015535;28;20586;-66
2024/03/25 02:35:26;;;;;;;6.30;3.13;;;8.10;99.90;;;;;;5017217;28;20593;-66
2024/03/25 02:37:53;;;;;;;5.40;2.90;;;8.10;99.90;;;;;;5015422;28;20242;-66
2024/03/25 02:40:19;;;;;;;6.57;3.27;;;8.10;99.90;;;;;;5012629;28;20462;-67
2024/03/25 02:42:45;;;;;;;5.80;3.60;;;8.20;99.90;;;;;;5017323;28;20521;-66
2024/03/25 02:45:11;;;;;;;4.70;3.07;;;8.10;99.90;;;;;;5010325;28;20463;-66
2024/03/25 02:47:36;;;;;;;6.50;3.30;;;8.10;99.90;;;;;;5011732;28;20420;-66
2024/03/25 02:50:02;;;;;;;4.50;2.60;;;8.10;99.90;;;;;;5011959;28;20188;-67
2024/03/25 02:52:28;;;;;;;5.67;3.47;;;8.10;99.90;;;;;;5012463;28;20173;-67
2024/03/25 02:54:56;;;;;;;4.83;3.20;;;8.10;99.90;;;;;;5009002;28;20213;-67
2024/03/25 02:57:22;;;;;;;6.03;3.07;;;8.20;99.90;;;;;;5011504;28;20181;-67
2024/03/25 02:59:47;;;;;;;5.00;3.13;;;8.10;99.90;;;;;;5013955;28;20794;-67
2024/03/25 03:02:13;;;;;;;5.17;3.30;;;8.10;99.90;;;;;;5013422;28;20196;-67
2024/03/25 03:04:38;;;;;;;6.30;3.00;;;8.10;99.90;;;;;;5011710;28;20204;-67
2024/03/25 03:07:04;;;;;;;6.13;3.20;;;8.10;99.90;;;;;;5012998;28;20280;-67
2024/03/25 03:09:30;;;;;;;6.20;3.00;;;8.00;99.90;;;;;;5010416;28;20174;-67
2024/03/25 03:11:55;;;;;;;5.07;4.03;;;8.00;99.90;;;;;;5007463;28;20490;-67
2024/03/25 03:14:21;;;;;;;5.10;2.37;;;8.00;99.90;;;;;;5007137;28;20259;-67
2024/03/25 03:16:47;;;;;;;5.03;2.60;;;8.10;99.90;;;;;;5011425;28;20280;-67
2024/03/25 03:19:12;;;;;;;4.27;2.87;;;8.10;99.90;;;;;;5012515;28;20673;-67
2024/03/25 03:21:38;;;;;;;3.90;2.90;;;8.10;99.90;;;;;;5009453;28;20227;-67
2024/03/25 03:24:04;;;;;;;3.80;3.30;;;8.00;99.90;;;;;;5015778;28;20292;-67
2024/03/25 03:26:30;;;;;;;4.77;2.87;;;8.00;99.90;;;;;;5011143;28;20200;-68
2024/03/25 03:28:58;;;;;;;3.83;2.80;;;8.00;99.90;;;;;;5013191;28;20959;-67
2024/03/25 03:31:26;;;;;;;6.17;3.20;;;8.00;99.90;;;;;;5010704;28;20185;-67
2024/03/25 03:33:51;;;;;;;9.63;3.03;;;7.90;99.90;;;;;;5012702;28;20432;-67
2024/03/25 03:36:18;;;;;;;4.83;3.37;;;7.80;99.90;;;;;;5010776;28;20432;-67
2024/03/25 03:38:44;;;;;;;4.60;3.03;;;7.90;99.90;;;;;;5015378;28;20189;-67
2024/03/25 03:41:10;;;;;;;5.47;3.13;;;7.90;99.90;;;;;;5014648;28;20490;-67
2024/03/25 03:43:36;;;;;;;10.93;2.80;;;7.90;99.90;;;;;;5011466;28;20650;-67
2024/03/25 03:46:02;;;;;;;5.37;2.80;;;8.00;99.90;;;;;;5018725;28;20177;-67
2024/03/25 03:48:28;;;;;;;6.90;5.20;;;7.90;99.90;;;;;;5010918;28;20230;-67
2024/03/25 03:50:53;;;;;;;6.30;3.20;;;7.90;99.90;;;;;;5018617;28;20435;-67
2024/03/25 03:53:19;;;;;;;4.70;3.53;;;7.90;99.90;;;;;;5013958;28;20185;-67
2024/03/25 03:55:55;;;;;;;7.63;3.00;;;7.90;99.90;;;;;;5012078;28;20196;-67
2024/03/25 03:58:22;;;;;;;6.77;3.33;;;8.00;99.90;;;;;;5012338;28;20172;-67
2024/03/25 04:00:47;;;;;;;4.40;3.20;;;8.00;99.90;;;;;;5008357;28;20444;-67
2024/03/25 04:03:13;;;;;;;5.87;3.43;;;8.00;99.90;;;;;;5014786;28;20800;-67
2024/03/25 04:05:39;;;;;;;5.10;3.63;;;8.00;99.90;;;;;;5015375;28;20270;-67
2024/03/25 04:08:05;;;;;;;6.40;3.40;;;8.00;99.90;;;;;;5013387;28;20185;-67
2024/03/25 04:10:30;;;;;;;5.97;3.20;;;8.00;99.90;;;;;;5010369;28;20411;-67
2024/03/25 04:12:56;;;;;;;5.53;3.27;;;8.00;99.90;;;;;;5011826;28;20423;-67
2024/03/25 04:15:22;;;;;;;5.17;3.17;;;8.00;99.90;;;;;;5009668;28;20235;-67
2024/03/25 04:17:51;;;;;;;4.53;3.00;;;8.00;99.90;;;;;;5011008;28;20189;-67
2024/03/25 04:20:17;;;;;;;5.20;3.10;;;7.90;99.90;;;;;;5012083;28;20426;-67
2024/03/25 04:22:43;;;;;;;4.17;3.27;;;8.00;99.90;;;;;;5012333;28;20419;-67
2024/03/25 04:25:14;;;;;;;8.13;3.10;;;7.90;99.90;;;;;;5010040;28;20224;-67
2024/03/25 04:27:40;;;;;;;6.93;3.50;;;7.90;99.90;;;;;;5010565;28;20427;-67
2024/03/25 04:30:11;;;;;;;5.70;3.20;;;7.90;99.90;;;;;;5021917;28;20519;-66
2024/03/25 04:32:37;;;;;;;5.00;3.40;;;8.00;99.90;;;;;;5007069;28;20419;-67
2024/03/25 04:35:03;;;;;;;6.47;3.20;;;8.00;99.90;;;;;;5010248;28;20465;-68
2024/03/25 04:37:30;;;;;;;6.83;3.33;;;8.00;99.90;;;;;;5013791;28;20786;-67
2024/03/25 04:39:56;;;;;;;8.83;3.20;;;8.00;99.90;;;;;;5013683;28;20435;-67
2024/03/25 04:42:22;;;;;;;9.20;3.43;;;8.00;99.90;;;;;;5013486;28;20424;-66
2024/03/25 04:44:48;;;;;;;7.90;3.20;;;8.00;99.90;;;;;;5018704;28;20474;-67
2024/03/25 04:47:15;;;;;;;5.83;3.63;;;8.00;99.90;;;;;;5010294;28;20438;-67
2024/03/25 04:49:41;;;;;;;4.97;3.03;;;8.00;99.90;;;;;;5015008;28;20816;-67
2024/03/25 04:52:06;;;;;;;7.60;3.80;;;7.90;99.90;;;;;;5009037;28;20444;-67
2024/03/25 04:54:32;;;;;;;5.50;3.30;;;7.90;99.90;;;;;;5009813;28;20430;-66
2024/03/25 04:56:57;;;;;;;3.70;2.77;;;8.00;99.90;;;;;;5011346;28;20670;-66
2024/03/25 04:59:23;;;;;;;8.23;4.50;;;8.00;99.90;;;;;;5017942;28;20181;-67
2024/03/25 05:01:48;;;;;;;5.93;3.50;;;7.90;99.90;;;;;;5015284;28;20217;-66
2024/03/25 05:04:14;;;;;;;7.43;3.27;;;7.90;99.90;;;;;;5018851;28;20215;-67
2024/03/25 05:06:40;;;;;;;4.60;2.87;;;7.90;99.90;;;;;;5017864;28;20231;-66
2024/03/25 05:09:08;;;;;;;6.90;3.07;;;7.90;99.90;;;;;;5013178;28;20228;-67
2024/03/25 05:11:33;;;;;;;7.13;3.77;;;7.80;99.90;;;;;;5015883;28;20565;-66
2024/03/25 05:13:59;;;;;;;4.20;3.20;;;7.80;99.90;;;;;;5017476;28;20451;-66
2024/03/25 05:16:25;;;;;;;10.70;3.80;;;7.80;99.90;;;;;;5017250;28;20228;-66
2024/03/25 05:18:50;;;;;;;5.03;2.97;;;7.80;99.90;;;;;;5016828;28;20474;-67
2024/03/25 05:21:16;;;;;;;6.07;3.63;;;7.70;99.90;;;;;;5017162;28;20196;-67
2024/03/25 05:23:42;;;;;;;8.53;3.17;;;7.80;99.90;;;;;;5019039;28;20192;-67
2024/03/25 05:26:08;;;;;;;6.40;3.17;;;7.80;99.90;;;;;;5013574;28;20188;-67
2024/03/25 05:28:33;;;;;;;6.57;3.80;;;7.80;99.90;;;;;;5018060;28;20975;-67
2024/03/25 05:31:09;;;;;;;6.17;3.77;;;7.70;99.90;;;;;;5015497;28;20258;-68
2024/03/25 05:33:35;;;;;;;6.00;3.27;;;7.70;99.90;;;;;;5014925;28;20195;-67
2024/03/25 05:36:02;;;;;;;6.33;3.10;;;7.60;99.90;;;;;;5013543;28;20468;-67
2024/03/25 05:38:28;;;;;;;7.27;3.67;;;7.50;99.90;;;;;;5015466;28;20929;-66
2024/03/25 05:40:54;;;;;;;6.73;3.77;;;7.50;99.90;;;;;;5019264;28;20420;-66
2024/03/25 05:43:20;;;;;;;10.20;4.27;;;7.40;99.90;;;;;;5013000;28;20438;-66
2024/03/25 05:45:55;;;;;;;5.57;3.30;;;7.50;99.90;;;;;;5010300;28;20471;-66
2024/03/25 05:48:21;;;;;;;6.17;3.70;;;7.50;99.90;;;;;;5014743;28;20436;-66
2024/03/25 05:50:56;;;;;;;14.20;4.20;;;7.50;99.90;;;;;;5019163;28;20778;-66
2024/03/25 05:53:22;;;;;;;5.70;3.77;;;7.60;99.90;;;;;;5014145;28;20439;-66
2024/03/25 05:55:48;;;;;;;8.03;4.00;;;7.50;99.90;;;;;;5011176;28;20455;-66
2024/03/25 05:58:13;;;;;;;6.43;3.80;;;7.50;99.90;;;;;;5012571;28;20184;-67
2024/03/25 06:00:39;;;;;;;5.67;3.50;;;7.50;99.90;;;;;;5013196;28;20188;-67
2024/03/25 06:03:05;;;;;;;8.70;5.30;;;7.50;99.90;;;;;;5011429;28;20196;-68
2024/03/25 06:05:30;;;;;;;6.43;3.53;;;7.60;99.90;;;;;;5012225;28;20216;-66
2024/03/25 06:07:56;;;;;;;7.90;4.07;;;7.50;99.90;;;;;;5010112;28;20177;-66
2024/03/25 06:10:21;;;;;;;12.63;5.07;;;7.50;99.90;;;;;;5005507;28;20579;-67
2024/03/25 06:12:47;;;;;;;4.80;3.33;;;7.50;99.90;;;;;;5017373;28;20553;-66
2024/03/25 06:15:13;;;;;;;7.83;3.50;;;7.60;99.90;;;;;;5008898;28;20204;-67
2024/03/25 06:17:39;;;;;;;5.70;3.47;;;7.60;99.90;;;;;;5012322;28;20519;-66
2024/03/25 06:20:05;;;;;;;15.10;4.33;;;7.50;99.90;;;;;;5010730;28;20279;-67
2024/03/25 06:22:30;;;;;;;9.50;4.00;;;7.50;99.90;;;;;;5011045;28;20178;-67
2024/03/25 06:24:56;;;;;;;4.87;3.40;;;7.60;99.90;;;;;;5016208;28;20475;-66
2024/03/25 06:27:21;;;;;;;7.63;3.10;;;7.70;99.90;;;;;;5015852;28;20181;-66
2024/03/25 06:29:47;;;;;;;7.20;3.90;;;7.60;99.90;;;;;;5014526;28;20260;-66
2024/03/25 06:35:01;;;;;;;6.13;4.57;;;7.80;99.90;;;;;;5013799;28;20243;-67
2024/03/25 06:37:26;;;;;;;5.93;3.63;;;7.80;99.90;;;;;;5009863;28;20511;-67
2024/03/25 06:39:53;;;;;;;6.67;3.60;;;7.80;99.90;;;;;;5011450;28;20799;-67
2024/03/25 06:42:19;;;;;;;9.13;4.07;;;7.80;99.90;;;;;;5013435;28;20177;-66
2024/03/25 06:44:49;;;;;;;7.33;3.97;;;7.80;99.90;;;;;;5014641;28;20475;-66
2024/03/25 06:47:14;;;;;;;5.50;3.17;;;7.80;99.90;;;;;;5014461;28;20485;-67
2024/03/25 06:49:40;;;;;;;7.93;3.97;;;7.80;99.90;;;;;;5018184;28;20412;-68
2024/03/25 06:52:06;;;;;;;6.13;3.90;;;7.90;99.90;;;;;;5008680;28;20184;-68
2024/03/25 06:54:31;;;;;;;8.00;4.03;;;8.00;99.90;;;;;;5015364;28;20295;-67
2024/03/25 06:56:57;;;;;;;5.00;3.63;;;8.00;99.90;;;;;;5017613;28;20298;-68
2024/03/25 06:59:23;;;;;;;5.47;3.80;;;8.10;99.90;;;;;;5014792;28;20209;-66
2024/03/25 07:01:48;;;;;;;7.30;3.40;;;8.00;99.90;;;;;;5013948;28;20310;-67
2024/03/25 07:04:14;;;;;;;4.77;3.93;;;8.20;99.90;;;;;;5013163;28;20208;-67
2024/03/25 07:06:40;;;;;;;4.10;3.50;;;8.20;99.90;;;;;;5014822;28;20195;-66
2024/03/25 07:09:06;;;;;;;6.47;3.20;;;8.20;99.90;;;;;;5010439;28;20270;-67
2024/03/25 07:11:32;;;;;;;7.30;3.50;;;8.20;99.90;;;;;;5012162;28;20460;-66
2024/03/25 07:13:58;;;;;;;5.37;3.60;;;8.20;99.90;;;;;;5014998;28;20216;-66
2024/03/25 07:16:23;;;;;;;5.20;3.23;;;8.20;99.90;;;;;;5015914;28;20719;-66
2024/03/25 07:18:49;;;;;;;8.10;3.73;;;8.20;99.90;;;;;;5012556;28;20574;-67
2024/03/25 07:21:14;;;;;;;8.30;3.90;;;8.30;99.90;;;;;;5014254;28;20569;-66
2024/03/25 07:23:40;;;;;;;6.43;3.13;;;8.20;99.90;;;;;;5013272;28;20184;-67
2024/03/25 07:26:06;;;;;;;10.63;4.20;;;8.30;99.90;;;;;;5019554;28;20295;-67
2024/03/25 07:28:31;;;;;;;3.73;2.83;;;8.40;99.90;;;;;;5011359;28;20180;-67
2024/03/25 07:30:57;;;;;;;5.93;3.50;;;8.50;99.90;;;;;;5014849;28;20206;-67
2024/03/25 07:33:26;;;;;;;9.17;3.80;;;8.50;99.90;;;;;;5015152;28;20655;-67
2024/03/25 07:35:51;;;;;;;5.20;3.57;;;8.40;99.90;;;;;;5011629;28;20480;-66
2024/03/25 07:38:17;;;;;;;5.33;3.50;;;8.50;99.90;;;;;;5017935;28;20913;-67
2024/03/25 07:40:42;;;;;;;10.37;3.67;;;8.50;99.90;;;;;;5016616;28;20212;-67
2024/03/25 07:43:09;;;;;;;6.17;3.57;;;8.50;99.90;;;;;;5018594;28;20181;-67
2024/03/25 07:45:34;;;;;;;6.23;3.63;;;8.60;99.90;;;;;;5013630;28;20216;-67
2024/03/25 07:48:00;;;;;;;5.80;3.90;;;8.60;99.90;;;;;;5014063;28;20425;-68
2024/03/25 07:50:26;;;;;;;5.17;3.93;;;8.70;99.90;;;;;;5010004;28;20272;-68
2024/03/25 07:52:51;;;;;;;6.23;3.23;;;8.80;99.90;;;;;;5014885;28;20224;-68
2024/03/25 07:55:17;;;;;;;7.37;3.57;;;8.80;99.90;;;;;;5016274;28;20211;-67
2024/03/25 07:57:42;;;;;;;7.43;4.47;;;8.80;99.90;;;;;;5015995;28;20194;-67
2024/03/25 08:00:09;;;;;;;7.03;3.80;;;8.90;99.90;;;;;;5015454;28;20180;-68
2024/03/25 08:02:35;;;;;;;7.47;4.70;;;8.90;99.90;;;;;;5014862;28;20205;-68
2024/03/25 08:05:01;;;;;;;6.03;4.00;;;9.00;99.90;;;;;;5008792;28;21350;-68
2024/03/25 08:07:26;;;;;;;10.37;6.03;;;9.10;99.90;;;;;;5014204;28;20187;-68
2024/03/25 08:09:52;;;;;;;8.63;4.03;;;9.10;99.90;;;;;;5013210;28;20291;-68
2024/03/25 08:12:17;;;;;;;8.00;4.27;;;9.10;99.90;;;;;;5009068;28;20236;-68
2024/03/25 08:14:43;;;;;;;10.93;3.90;;;9.20;99.90;;;;;;5009171;28;20339;-68
2024/03/25 08:17:09;;;;;;;6.20;4.10;;;9.20;99.90;;;;;;5012832;28;20618;-68
2024/03/25 08:19:34;;;;;;;12.23;4.37;;;9.20;99.90;;;;;;5009730;28;20193;-68
2024/03/25 08:22:00;;;;;;;6.40;4.10;;;9.20;99.90;;;;;;5015420;28;20192;-68
2024/03/25 08:24:25;;;;;;;5.83;3.97;;;9.30;99.90;;;;;;5007824;28;20671;-68
2024/03/25 08:26:51;;;;;;;6.27;3.20;;;9.30;99.90;;;;;;5012962;28;20292;-68
2024/03/25 08:29:17;;;;;;;6.97;3.80;;;9.30;99.90;;;;;;5011075;28;20185;-68
2024/03/25 08:31:43;;;;;;;6.97;3.70;;;9.40;99.90;;;;;;5005474;28;20626;-69
2024/03/25 08:34:08;;;;;;;7.53;3.37;;;9.40;99.90;;;;;;5018385;28;20467;-68
2024/03/25 08:36:34;;;;;;;8.60;3.90;;;9.40;99.90;;;;;;5013152;28;20203;-69
2024/03/25 08:38:59;;;;;;;6.03;4.13;;;9.30;99.90;;;;;;5015429;28;20200;-69
2024/03/25 08:41:25;;;;;;;6.40;4.10;;;9.40;99.90;;;;;;5033649;28;20247;-69
2024/03/25 08:43:50;;;;;;;6.27;3.73;;;9.50;99.90;;;;;;5014485;28;20188;-68
2024/03/25 08:46:16;;;;;;;6.93;4.03;;;9.60;99.90;;;;;;5011931;28;20267;-68
2024/03/25 08:48:42;;;;;;;8.70;4.43;;;9.70;99.90;;;;;;5012039;28;20642;-67
2024/03/25 08:51:08;;;;;;;4.97;3.50;;;9.70;99.90;;;;;;5014476;28;20225;-67
2024/03/25 08:53:33;;;;;;;7.27;4.13;;;9.70;99.90;;;;;;5016398;28;20463;-68
2024/03/25 08:55:59;;;;;;;6.30;3.87;;;9.70;99.90;;;;;;5012765;28;20470;-68
2024/03/25 08:58:25;;;;;;;8.73;4.17;;;9.60;99.90;;;;;;5019387;28;20200;-68
2024/03/25 09:00:50;;;;;;;8.10;3.70;;;9.50;99.90;;;;;;5015535;28;20185;-68
2024/03/25 09:03:17;;;;;;;16.17;4.13;;;9.50;99.90;;;;;;5014315;28;20442;-68
2024/03/25 09:05:42;;;;;;;9.23;4.23;;;9.60;99.90;;;;;;5014593;28;20731;-68
2024/03/25 09:08:11;;;;;;;6.57;3.67;;;9.60;99.90;;;;;;5011559;28;20446;-67
2024/03/25 09:13:23;;;;;;;6.53;3.90;;;9.70;99.90;;;;;;5010959;28;20493;-66
2024/03/25 09:15:48;;;;;;;7.87;3.83;;;9.70;99.90;;;;;;5006445;28;20478;-67
2024/03/25 09:18:14;;;;;;;9.93;4.03;;;9.70;99.90;;;;;;5011450;28;20477;-67
2024/03/25 09:20:39;;;;;;;5.33;3.70;;;9.80;99.90;;;;;;5010251;28;20733;-67
2024/03/25 09:23:05;;;;;;;4.47;3.20;;;9.80;99.90;;;;;;5012499;28;20920;-67
2024/03/25 09:25:30;;;;;;;5.33;3.33;;;9.90;99.90;;;;;;5010371;28;20294;-67
2024/03/25 09:27:56;;;;;;;6.27;4.50;;;9.90;99.90;;;;;;5007802;28;20275;-68
2024/03/25 09:30:21;;;;;;;5.03;3.40;;;10.00;99.90;;;;;;5011189;28;20181;-67
2024/03/25 09:32:47;;;;;;;7.00;3.47;;;10.10;99.90;;;;;;5011920;28;20212;-67
2024/03/25 09:35:13;;;;;;;10.13;3.20;;;10.20;99.90;;;;;;5012636;28;20765;-67
2024/03/25 09:37:39;;;;;;;5.13;3.00;;;10.30;99.90;;;;;;5008702;28;20258;-67
2024/03/25 09:40:05;;;;;;;5.93;3.47;;;10.40;99.90;;;;;;5014208;28;20199;-67
2024/03/25 09:42:49;;;;;;;5.00;2.97;;;10.40;99.90;;;;;;5013755;28;20598;-67
2024/03/25 09:45:18;;;;;;;6.70;2.50;;;10.40;99.90;;;;;;5021075;28;20477;-68
2024/03/25 09:47:46;;;;;;;4.63;2.47;;;10.40;99.90;;;;;;5018371;28;20812;-67
2024/03/25 09:50:13;;;;;;;3.77;2.27;;;10.40;99.90;;;;;;5022835;28;20420;-67
2024/03/25 09:52:40;;;;;;;3.80;2.60;;;10.50;99.90;;;;;;5016315;28;21254;-67
2024/03/25 09:55:06;;;;;;;6.93;2.50;;;10.60;99.90;;;;;;5016106;28;20460;-67
2024/03/25 09:57:33;;;;;;;4.50;2.83;;;10.60;99.90;;;;;;5016162;28;20527;-67
2024/03/25 09:59:58;;;;;;;4.70;2.73;;;10.70;99.90;;;;;;5015671;28;20427;-66
2024/03/25 10:02:26;;;;;;;9.10;3.27;;;10.80;99.90;;;;;;5008244;28;20483;-66
2024/03/25 10:04:52;;;;;;;6.90;3.20;;;10.80;99.90;;;;;;5016139;28;20295;-66
2024/03/25 10:07:24;;;;;;;5.00;3.17;;;10.90;99.90;;;;;;5012471;28;20558;-68
2024/03/25 10:09:50;;;;;;;6.37;2.67;;;11.00;99.90;;;;;;5011435;28;20315;-68
2024/03/25 10:12:16;;;;;;;4.40;2.90;;;11.00;99.90;;;;;;5014013;28;21245;-68
2024/03/25 10:14:42;;;;;;;4.43;2.87;;;11.10;99.90;;;;;;5005510;28;20602;-68
2024/03/25 10:17:07;;;;;;;3.30;2.60;;;11.20;99.90;;;;;;5012487;28;20200;-68
2024/03/25 10:19:36;;;;;;;4.10;3.10;;;11.30;99.90;;;;;;5018561;28;20443;-68
2024/03/25 10:22:04;;;;;;;8.60;3.20;;;11.30;99.90;;;;;;5007412;28;20258;-68
2024/03/25 10:24:50;;;;;;;6.87;3.40;;;11.40;99.90;;;;;;5010511;28;20510;-68
2024/03/25 10:27:20;;;;;;;6.90;3.37;;;11.30;99.90;;;;;;5008553;28;20466;-68
2024/03/25 10:29:53;;;;;;;7.73;3.07;;;11.30;99.90;;;;;;5010722;28;20443;-68
2024/03/25 10:32:19;;;;;;;5.22;3.20;;;11.40;99.90;;;;;;5008912;28;20423;-67
2024/03/25 10:34:44;;;;;;;6.00;3.50;;;11.50;99.90;;;;;;5007962;28;20205;-67
2024/03/25 10:37:11;;;;;;;5.60;3.67;;;11.50;99.90;;;;;;5006081;28;20511;-66
2024/03/25 10:39:50;;;;;;;4.70;3.37;;;11.40;99.90;;;;;;5011047;28;20185;-67
2024/03/25 10:42:19;;;;;;;4.03;2.93;;;11.60;99.90;;;;;;5009677;28;20530;-68
2024/03/25 10:44:44;;;;;;;6.43;3.93;;;11.70;99.90;;;;;;5008275;28;21094;-67
2024/03/25 10:47:18;;;;;;;4.87;3.40;;;11.70;99.90;;;;;;5008107;28;20429;-67
2024/03/25 10:49:55;;;;;;;9.30;4.57;;;11.60;99.90;;;;;;5009419;28;20176;-67
2024/03/25 10:52:21;;;;;;;7.30;3.67;;;11.70;99.90;;;;;;5008712;28;20451;-67
2024/03/25 10:54:47;;;;;;;4.70;3.60;;;11.90;99.90;;;;;;5008136;28;20522;-67
2024/03/25 10:57:13;;;;;;;5.87;3.27;;;12.00;99.90;;;;;;5006376;28;21296;-67
2024/03/25 10:59:42;;;;;;;5.20;3.27;;;12.10;99.90;;;;;;5011292;28;20439;-68
2024/03/25 11:02:09;;;;;;;6.30;3.30;;;12.20;99.90;;;;;;5013811;28;20450;-67
2024/03/25 11:04:35;;;;;;;6.83;3.87;;;12.30;99.90;;;;;;5017624;28;20477;-67
2024/03/25 11:07:14;;;;;;;4.03;3.00;;;12.40;99.90;;;;;;5009303;28;20431;-66
2024/03/25 11:09:41;;;;;;;6.13;3.13;;;12.40;99.90;;;;;;5007146;28;20515;-66
2024/03/25 11:12:09;;;;;;;6.47;5.23;;;12.50;99.90;;;;;;5012725;28;20444;-67
2024/03/25 11:14:35;;;;;;;5.77;3.33;;;12.50;99.90;;;;;;5018232;28;20530;-66
2024/03/25 11:17:01;;;;;;;4.53;3.50;;;12.50;99.90;;;;;;5009562;28;20609;-67
2024/03/25 11:19:34;;;;;;;6.30;3.50;;;12.50;99.90;;;;;;5062221;28;20605;-65
2024/03/25 11:22:12;;;;;;;5.47;3.10;;;12.70;99.90;;;;;;5036828;28;20427;-66
2024/03/25 11:24:43;;;;;;;12.37;3.60;;;12.70;99.90;;;;;;5035765;28;20430;-66
2024/03/25 11:27:08;;;;;;;5.50;3.07;;;12.70;99.90;;;;;;5032146;28;20434;-67
2024/03/25 11:29:34;;;;;;;4.00;2.90;;;12.80;99.90;;;;;;5038091;28;20821;-66
2024/03/25 11:32:04;;;;;;;7.00;3.90;;;12.90;99.90;;;;;;5036731;28;20680;-66
2024/03/25 11:34:30;;;;;;;6.57;3.60;;;13.00;99.90;;;;;;5038406;28;20480;-67
2024/03/25 11:36:57;;;;;;;3.90;3.43;;;13.10;99.90;;;;;;5032979;28;20517;-67
2024/03/25 11:39:23;;;;;;;6.13;4.20;;;13.20;99.90;;;;;;5036693;28;20239;-66
2024/03/25 11:41:49;;;;;;;5.97;3.00;;;13.40;99.90;;;;;;5038270;28;20454;-67
2024/03/25 11:44:17;;;;;;;8.10;2.80;;;13.50;99.90;;;;;;5029498;28;20445;-67
2024/03/25 11:46:43;;;;;;;5.57;2.87;;;13.60;99.40;;;;;;5036850;28;20441;-67
2024/03/25 11:49:14;;;;;;;3.50;2.97;;;13.80;99.50;;;;;;5035500;28;20438;-67
2024/03/25 11:51:41;;;;;;;4.83;3.17;;;13.90;98.60;;;;;;5041363;28;20419;-67
2024/03/25 11:54:07;;;;;;;3.73;2.90;;;14.10;98.50;;;;;;5034756;28;20437;-67
2024/03/25 11:56:33;;;;;;;5.13;3.77;;;14.20;97.30;;;;;;5034286;28;20438;-67
2024/03/25 11:59:02;;;;;;;6.10;3.60;;;14.50;97.60;;;;;;5033553;28;20991;-67
2024/03/25 12:01:29;;;;;;;4.27;2.87;;;14.70;97.20;;;;;;5036374;28;20230;-67
2024/03/25 12:03:54;;;;;;;4.87;2.87;;;15.00;95.50;;;;;;5033944;28;20422;-67
2024/03/25 12:06:20;;;;;;;3.60;2.33;;;15.40;94.40;;;;;;5041474;28;20422;-67
2024/03/25 12:11:30;;;;;;;12.43;2.80;;;19.90;94.10;;;;;;5031392;28;20198;-67
2024/03/25 12:13:56;;;;;;;4.77;3.00;;;23.60;77.70;;;;;;5030155;28;20890;-67
2024/03/25 12:16:21;;;;;;;4.10;2.70;;;26.10;64.10;;;;;;5035478;28;20191;-67
2024/03/25 12:18:47;;;;;;;3.67;2.70;;;27.80;58.00;;;;;;5039207;28;20633;-68
2024/03/25 12:21:12;;;;;;;4.57;2.67;;;29.10;53.00;;;;;;5043181;28;20198;-68
2024/03/25 12:23:38;;;;;;;3.90;2.90;;;29.40;47.70;;;;;;5039120;28;20263;-68
2024/03/25 12:26:04;;;;;;;4.17;3.03;;;29.20;43.50;;;;;;5038773;28;20180;-68
2024/03/25 12:28:31;;;;;;;5.27;3.13;;;29.30;43.30;;;;;;5036190;28;20192;-68
2024/03/25 12:30:57;;;;;;;4.27;2.67;;;29.50;42.30;;;;;;5023460;28;20848;-68
2024/03/25 12:33:23;;;;;;;4.40;3.13;;;29.60;39.40;;;;;;5023319;28;20442;-66
2024/03/25 12:35:50;;;;;;;5.40;2.87;;;29.90;39.20;;;;;;5021159;28;20262;-68
2024/03/25 12:38:25;;;;;;;4.50;2.80;;;30.30;38.20;;;;;;5023827;28;20462;-68
2024/03/25 12:40:51;;;;;;;5.70;2.90;;;30.90;37.00;;;;;;5024457;28;20976;-68
2024/03/25 12:43:17;;;;;;;3.63;3.23;;;31.10;35.70;;;;;;5023735;28;20414;-68
2024/03/25 12:45:42;;;;;;;5.00;3.17;;;31.30;35.60;;;;;;5027367;28;20497;-68
2024/03/25 12:48:09;;;;;;;8.40;3.63;;;31.40;34.50;;;;;;5020113;28;20680;-69
2024/03/25 12:50:35;;;;;;;3.53;2.57;;;31.00;34.10;;;;;;5024374;28;20204;-68
2024/03/25 12:53:02;;;;;;;4.87;3.30;;;31.20;34.10;;;;;;5021699;28;20530;-66
2024/03/25 12:55:31;;;;;;;3.90;3.27;;;31.70;34.00;;;;;;5025125;28;20439;-68
2024/03/25 12:57:56;;;;;;;5.10;3.33;;;31.90;33.60;;;;;;5016849;28;20466;-68